Time;durP1;ratioP1;P1;durP2;ratioP2;P2;SDS_P1;SDS_P2;PMS_P1;PMS_P2;Temp;Humidity;BMP_temperature;BMP_pressure;BME280_temperature;BME280_humidity;BME280_pressure;Samples;Min_cycle;Max_cycle;Signal;HPM_P1;HPM_P2
2020/12/07 00:02:00;;;;;;;33.30;26.77;;;;;;;3.03;100.00;99101.66;10383581;28;20068;-71
2020/12/07 00:07:03;;;;;;;29.58;24.77;;;;;;;2.99;100.00;99106.16;10365644;28;20401;-70
2020/12/07 00:12:04;;;;;;;30.35;24.55;;;;;;;2.98;100.00;99086.25;10394813;28;20042;-71
2020/12/07 00:17:05;;;;;;;31.83;25.88;;;;;;;3.08;100.00;99088.50;10388568;28;20062;-71
2020/12/07 00:22:07;;;;;;;40.13;30.77;;;;;;;2.98;100.00;99075.84;10380303;28;20058;-71
2020/12/07 00:27:08;;;;;;;44.60;33.30;;;;;;;3.03;100.00;99083.47;10405996;28;20205;-71
2020/12/07 00:32:09;;;;;;;44.20;34.47;;;;;;;3.02;100.00;99105.16;10376907;28;20482;-71
2020/12/07 00:37:10;;;;;;;44.35;33.03;;;;;;;3.02;100.00;99113.81;10376695;28;20104;-71
2020/12/07 00:42:12;;;;;;;41.05;30.17;;;;;;;3.02;100.00;99097.38;10376972;28;20041;-71
2020/12/07 00:47:13;;;;;;;41.33;32.45;;;;;;;2.99;100.00;99082.75;10376757;28;20049;-71
2020/12/07 00:52:14;;;;;;;42.75;33.85;;;;;;;3.01;100.00;99090.50;10358627;28;20050;-71
2020/12/07 00:57:16;;;;;;;42.38;34.47;;;;;;;3.01;100.00;99074.88;10387061;28;20049;-71
2020/12/07 01:02:17;;;;;;;45.53;34.85;;;;;;;2.97;100.00;99073.28;10358096;28;20054;-71
2020/12/07 01:07:18;;;;;;;42.28;33.10;;;;;;;2.89;100.00;99057.13;10377627;28;20052;-71
2020/12/07 01:12:23;;;;;;;43.28;33.40;;;;;;;2.89;100.00;99039.78;10374953;28;20042;-71
2020/12/07 01:17:25;;;;;;;47.58;35.45;;;;;;;2.94;100.00;99063.84;10386958;28;20053;-71
2020/12/07 01:22:36;;;;;;;41.75;33.10;;;;;;;2.99;100.00;99074.09;10373488;28;20041;-70
2020/12/07 01:27:38;;;;;;;45.80;34.25;;;;;;;2.96;100.00;99069.00;10367582;28;20060;-71
2020/12/07 01:32:39;;;;;;;40.00;31.98;;;;;;;2.97;100.00;99068.09;10374440;28;20046;-70
2020/12/07 01:37:41;;;;;;;43.83;34.33;;;;;;;3.01;100.00;99070.50;10356980;28;20053;-70
2020/12/07 01:42:45;;;;;;;41.10;33.25;;;;;;;2.97;100.00;99049.88;10356939;28;20049;-71
2020/12/07 01:47:47;;;;;;;48.67;36.78;;;;;;;2.93;100.00;99051.75;10366344;28;20042;-71
2020/12/07 01:52:49;;;;;;;41.42;33.72;;;;;;;2.95;100.00;99051.69;10356635;28;20048;-71
2020/12/07 01:57:51;;;;;;;44.33;34.85;;;;;;;2.91;100.00;99058.78;10386970;28;20052;-71
2020/12/07 02:02:53;;;;;;;40.78;32.50;;;;;;;2.92;100.00;99052.69;10358773;28;20473;-71
2020/12/07 02:08:09;;;;;;;48.50;35.97;;;;;;;2.90;100.00;99040.63;10375274;28;20057;-71
2020/12/07 02:13:13;;;;;;;42.35;33.65;;;;;;;2.82;100.00;99021.88;10361851;28;20553;-71
2020/12/07 02:18:16;;;;;;;45.90;35.47;;;;;;;2.89;100.00;99029.38;10356025;28;20653;-71
2020/12/07 02:23:18;;;;;;;48.45;36.55;;;;;;;2.77;100.00;99016.81;10399116;28;20042;-71
2020/12/07 02:28:27;;;;;;;45.03;34.58;;;;;;;2.82;100.00;99033.13;10377822;28;20050;-71
2020/12/07 02:33:28;;;;;;;45.55;34.67;;;;;;;2.81;100.00;99028.81;10355158;28;20050;-71
2020/12/07 02:38:30;;;;;;;54.38;37.08;;;;;;;2.76;100.00;99027.31;10354464;28;20053;-71
2020/12/07 02:43:31;;;;;;;54.55;39.88;;;;;;;2.76;100.00;99017.75;10371758;28;20366;-71
2020/12/07 02:48:34;;;;;;;48.72;35.47;;;;;;;2.78;100.00;99009.88;10354659;28;20049;-71
2020/12/07 02:53:40;;;;;;;53.65;38.88;;;;;;;2.78;100.00;99010.72;10355392;28;20088;-71
2020/12/07 02:58:44;;;;;;;59.97;41.10;;;;;;;2.77;100.00;99010.78;10363278;28;20054;-71
2020/12/07 03:03:46;;;;;;;56.13;38.53;;;;;;;2.74;100.00;99008.31;10361272;28;20049;-71
2020/12/07 03:08:47;;;;;;;58.17;39.53;;;;;;;2.78;100.00;99022.88;10409017;28;20045;-71
2020/12/07 03:13:51;;;;;;;56.45;39.83;;;;;;;2.67;100.00;99008.56;10395857;28;20068;-71
2020/12/07 03:18:53;;;;;;;55.78;38.80;;;;;;;2.79;100.00;99021.97;10361408;28;20505;-71
2020/12/07 03:23:58;;;;;;;53.97;37.43;;;;;;;2.75;100.00;99026.47;10377019;28;20076;-71
2020/12/07 03:29:02;;;;;;;58.95;39.40;;;;;;;2.80;100.00;99014.13;10366170;28;20053;-71
2020/12/07 03:34:08;;;;;;;;;;;;;;;2.81;100.00;99013.22;10355521;28;20104;-71
2020/12/07 03:39:10;;;;;;;58.85;40.15;;;;;;;2.79;100.00;99022.81;10355220;28;19921;-71
2020/12/07 03:44:18;;;;;;;59.03;39.22;;;;;;;2.76;100.00;99027.31;10355438;28;20042;-71
2020/12/07 03:49:20;;;;;;;55.28;38.15;;;;;;;2.71;100.00;99018.81;10354834;28;20450;-71
2020/12/07 03:54:24;;;;;;;57.05;38.38;;;;;;;2.77;100.00;99036.78;10359017;28;20049;-71
2020/12/07 03:59:27;;;;;;;55.92;37.08;;;;;;;2.69;100.00;99021.47;10361574;28;20054;-71
2020/12/07 04:04:39;;;;;;;54.92;39.15;;;;;;;2.80;100.00;99028.88;10414595;28;20080;-71
2020/12/07 04:09:41;;;;;;;57.38;40.38;;;;;;;2.83;100.00;99023.56;10420178;28;20111;-71
2020/12/07 04:14:42;;;;;;;53.17;36.35;;;;;;;2.77;100.00;99011.63;10419682;28;20420;-71
2020/12/07 04:19:43;;;;;;;53.03;35.72;;;;;;;2.84;100.00;99023.50;10420430;28;20049;-71
2020/12/07 04:24:44;;;;;;;47.78;35.03;;;;;;;2.88;100.00;99008.63;10392090;28;20054;-71
2020/12/07 04:29:45;;;;;;;47.90;33.47;;;;;;;2.94;100.00;99016.19;10396806;28;20486;-71
2020/12/07 04:34:46;;;;;;;54.50;34.67;;;;;;;2.86;100.00;99000.03;10379512;28;20050;-71
2020/12/07 04:39:48;;;;;;;50.72;33.30;;;;;;;2.77;100.00;98993.41;10380584;28;20046;-71
2020/12/07 04:44:49;;;;;;;51.38;35.22;;;;;;;2.81;100.00;98989.81;10378421;28;20046;-71
2020/12/07 04:49:53;;;;;;;50.45;33.80;;;;;;;2.82;100.00;98995.88;10377997;28;20042;-71
2020/12/07 04:54:56;;;;;;;50.72;32.80;;;;;;;2.84;100.00;99027.88;10359421;28;20049;-71
2020/12/07 04:59:58;;;;;;;48.13;33.15;;;;;;;2.81;100.00;99018.41;10377897;28;20481;-71
2020/12/07 05:04:59;;;;;;;46.03;30.85;;;;;;;2.82;100.00;99027.91;10373660;28;20053;-71
2020/12/07 05:10:11;;;;;;;51.20;36.05;;;;;;;2.85;100.00;99045.13;10391078;28;20043;-71
2020/12/07 05:15:14;;;;;;;44.22;32.40;;;;;;;2.82;100.00;99025.31;10381308;28;20050;-71
2020/12/07 05:20:15;;;;;;;43.00;31.02;;;;;;;2.80;100.00;99021.91;10377630;28;20057;-71
2020/12/07 05:25:17;;;;;;;46.45;32.85;;;;;;;2.76;100.00;99017.75;10409469;28;20046;-71
2020/12/07 05:30:22;;;;;;;53.85;34.63;;;;;;;2.78;100.00;99031.53;10400112;28;20046;-71
2020/12/07 05:35:23;;;;;;;51.35;34.45;;;;;;;2.76;100.00;99027.31;10409214;28;20041;-71
2020/12/07 05:40:25;;;;;;;49.40;33.88;;;;;;;2.77;100.00;99024.63;10390197;28;20037;-71
2020/12/07 05:45:26;;;;;;;50.92;35.50;;;;;;;2.74;100.00;99029.97;10383226;28;20057;-70
2020/12/07 05:50:33;;;;;;;54.92;37.95;;;;;;;2.73;100.00;99038.66;10414559;28;20045;-70
2020/12/07 05:55:34;;;;;;;52.22;36.40;;;;;;;2.75;100.00;99036.00;10395065;28;20619;-70
2020/12/07 06:00:36;;;;;;;48.83;36.58;;;;;;;2.63;100.00;99025.16;10368825;28;20053;-70
2020/12/07 06:05:39;;;;;;;55.38;36.95;;;;;;;2.74;100.00;99029.97;10373484;28;20052;-71
2020/12/07 06:10:45;;;;;;;52.97;37.47;;;;;;;2.81;100.00;99034.03;10443513;28;20033;-71
2020/12/07 06:15:47;;;;;;;52.20;36.17;;;;;;;2.84;100.00;99030.47;10412064;28;20400;-71
2020/12/07 06:20:54;;;;;;;48.55;34.50;;;;;;;2.82;100.00;99035.72;10430979;28;20053;-70
2020/12/07 06:26:02;;;;;;;53.03;33.92;;;;;;;2.79;100.00;99035.81;10387893;28;20038;-70
2020/12/07 06:31:11;;;;;;;50.08;34.58;;;;;;;2.86;100.00;99041.63;10400101;28;20046;-71
2020/12/07 06:36:29;;;;;;;53.38;34.75;;;;;;;2.81;100.00;99039.22;10407437;28;20053;-71
2020/12/07 06:41:37;;;;;;;48.70;32.55;;;;;;;2.79;100.00;99034.97;10412235;28;20042;-71
2020/12/07 06:46:55;;;;;;;49.42;33.03;;;;;;;2.84;100.00;99051.28;10414448;28;20048;-70
2020/12/07 06:52:07;;;;;;;53.72;32.53;;;;;;;2.83;100.00;99053.03;10417505;28;20108;-71
2020/12/07 06:57:26;;;;;;;51.22;33.08;;;;;;;2.79;100.00;99063.56;10406326;28;20049;-71
2020/12/07 07:02:29;;;;;;;53.40;33.55;;;;;;;2.84;100.00;99066.88;10419180;28;20088;-71
2020/12/07 07:07:31;;;;;;;48.58;31.95;;;;;;;2.81;100.00;99069.56;10404701;28;20041;-70
2020/12/07 07:12:33;;;;;;;45.05;30.33;;;;;;;2.93;100.00;99087.34;10390663;28;20038;-69
2020/12/07 07:17:38;;;;;;;48.85;32.83;;;;;;;2.86;100.00;99078.03;10398791;28;20053;-70
2020/12/07 07:22:42;;;;;;;46.25;32.63;;;;;;;2.90;100.00;99083.09;10392925;28;20080;-69
2020/12/07 07:32:56;;;;;;;47.75;33.58;;;;;;;2.81;100.00;99087.78;10425731;28;20052;-69
2020/12/07 07:37:58;;;;;;;46.72;32.15;;;;;;;3.07;100.00;99084.19;10436787;28;20480;-70
2020/12/07 07:43:02;;;;;;;44.70;30.25;;;;;;;3.24;100.00;99084.41;10419834;28;20053;-69
2020/12/07 08:20:07;;;;;;;40.95;29.50;;;;;;;3.03;100.00;99101.66;10446543;28;20044;-70
2020/12/07 08:25:08;;;;;;;40.10;27.48;;;;;;;3.03;100.00;99125.09;10416944;28;20049;-70
2020/12/07 08:30:10;;;;;;;40.65;29.00;;;;;;;2.99;100.00;99116.56;10393115;28;20045;-70
2020/12/07 08:35:12;;;;;;;38.30;27.95;;;;;;;3.11;100.00;99127.38;10451293;28;20054;-70
2020/12/07 08:40:14;;;;;;;35.45;25.30;;;;;;;3.11;100.00;99132.59;10450772;28;20060;-70
2020/12/07 08:45:15;;;;;;;35.35;25.05;;;;;;;3.16;100.00;99139.34;10408384;28;20049;-69
2020/12/07 08:50:16;;;;;;;35.38;24.55;;;;;;;3.17;100.00;99155.81;10426580;28;20049;-70
2020/12/07 08:55:18;;;;;;;34.60;24.23;;;;;;;3.23;100.00;99155.56;10418803;28;20041;-71
2020/12/07 09:00:19;;;;;;;35.72;25.90;;;;;;;3.23;100.00;99164.22;10394012;28;20061;-71
2020/12/07 09:05:20;;;;;;;33.45;22.92;;;;;;;3.29;100.00;99166.59;10405766;28;20037;-70
2020/12/07 09:10:21;;;;;;;35.08;25.45;;;;;;;3.33;100.00;99164.72;10422380;28;20041;-72
2020/12/07 09:15:22;;;;;;;30.55;21.42;;;;;;;3.33;100.00;99172.53;10399355;28;20046;-71
2020/12/07 09:20:23;;;;;;;30.92;20.70;;;;;;;3.32;100.00;99169.09;10409575;28;20048;-71
2020/12/07 09:25:25;;;;;;;33.97;24.02;;;;;;;3.20;100.00;99184.28;10409664;28;20064;-70
2020/12/07 09:30:27;;;;;;;33.67;22.95;;;;;;;3.21;100.00;99186.84;10399785;28;20537;-71
2020/12/07 09:35:28;;;;;;;33.83;21.80;;;;;;;3.21;100.00;99193.81;10410614;28;20048;-71
2020/12/07 09:40:29;;;;;;;34.97;23.40;;;;;;;3.30;100.00;99201.28;10411780;28;20069;-72
2020/12/07 09:45:31;;;;;;;33.80;21.75;;;;;;;3.23;100.00;99203.25;10415762;28;20041;-70
2020/12/07 09:50:33;;;;;;;30.17;21.35;;;;;;;3.35;100.00;99210.59;10387029;28;20120;-70
2020/12/07 09:55:35;;;;;;;31.08;20.98;;;;;;;3.36;100.00;99208.84;10408497;28;20037;-71
2020/12/07 10:00:36;;;;;;;28.83;19.48;;;;;;;3.45;100.00;99211.09;10395255;28;20057;-70
2020/12/07 10:05:37;;;;;;;30.80;20.88;;;;;;;3.46;100.00;99206.75;10394985;28;20401;-70
2020/12/07 10:10:38;;;;;;;30.00;19.38;;;;;;;3.34;100.00;99208.06;10415539;28;20033;-70
2020/12/07 10:15:42;;;;;;;30.35;20.00;;;;;;;3.54;100.00;99212.50;10415473;28;20041;-71
2020/12/07 10:20:45;;;;;;;29.23;20.67;;;;;;;3.54;100.00;99207.31;10414904;28;20045;-73
2020/12/07 10:25:52;;;;;;;24.38;16.90;;;;;;;3.52;100.00;99203.91;10379040;28;20129;-72
2020/12/07 10:31:01;;;;;;;21.50;16.00;;;;;;;3.59;100.00;99206.25;10415632;28;20048;-72
2020/12/07 10:36:02;;;;;;;19.58;14.15;;;;;;;3.63;100.00;99196.53;10412617;28;20071;-72
2020/12/07 10:41:03;;;;;;;24.02;15.25;;;;;;;3.58;100.00;99177.66;10407585;28;20044;-71
2020/12/07 10:46:04;;;;;;;24.67;16.10;;;;;;;3.64;100.00;99190.44;10413101;28;20572;-72
2020/12/07 10:51:06;;;;;;;21.88;15.77;;;;;;;3.68;100.00;99197.22;10404638;28;20049;-71
2020/12/07 10:56:08;;;;;;;27.90;18.88;;;;;;;3.67;100.00;99201.59;10382508;28;20041;-70
2020/12/07 11:01:10;;;;;;;25.83;18.15;;;;;;;3.64;100.00;99200.84;10399525;28;20064;-71
2020/12/07 11:06:18;;;;;;;24.35;17.15;;;;;;;3.75;100.00;99206.50;10377567;28;20128;-71
2020/12/07 11:11:21;;;;;;;23.08;16.30;;;;;;;3.76;100.00;99200.38;10384585;28;20060;-72
2020/12/07 11:16:23;;;;;;;23.05;16.27;;;;;;;3.80;100.00;99204.53;10381792;28;20041;-71
2020/12/07 11:21:26;;;;;;;22.13;16.42;;;;;;;3.81;100.00;99201.03;10373430;28;20048;-71
2020/12/07 11:26:27;;;;;;;22.95;16.63;;;;;;;3.94;100.00;99199.63;10404613;28;20504;-73
2020/12/07 11:31:28;;;;;;;21.27;15.50;;;;;;;4.04;100.00;99203.56;10408161;28;20041;-73
2020/12/07 11:36:29;;;;;;;23.17;16.08;;;;;;;3.93;100.00;99190.13;10409979;28;20053;-73
2020/12/07 11:46:48;;;;;;;22.52;14.90;;;;;;;4.00;100.00;99195.94;10435056;28;20040;-73
2020/12/07 11:51:49;;;;;;;19.35;13.88;;;;;;;3.97;100.00;99194.31;10422834;28;20064;-72
2020/12/07 11:56:50;;;;;;;18.42;14.02;;;;;;;4.10;100.00;99210.31;10382712;28;20406;-72
2020/12/07 12:01:51;;;;;;;19.83;13.00;;;;;;;3.92;100.00;99192.81;10379128;28;20057;-73
2020/12/07 12:06:52;;;;;;;18.73;13.90;;;;;;;3.99;100.00;99208.13;10405846;28;20041;-73
2020/12/07 12:11:53;;;;;;;19.73;13.65;;;;;;;4.12;100.00;99216.28;10411030;28;20049;-72
2020/12/07 12:16:56;;;;;;;35.95;23.10;;;;;;;4.07;100.00;99210.41;10380280;28;20541;-73
2020/12/07 12:21:57;;;;;;;22.83;14.00;;;;;;;4.17;100.00;99214.34;10387286;28;20034;-73
2020/12/07 12:26:58;;;;;;;33.60;28.63;;;;;;;4.17;100.00;99219.56;10405220;28;20492;-73
2020/12/07 12:31:59;;;;;;;18.38;12.13;;;;;;;4.26;100.00;99210.53;10415244;28;20041;-73
2020/12/07 12:37:00;;;;;;;16.17;11.27;;;;;;;4.28;100.00;99206.94;10422745;28;20045;-72
2020/12/07 12:42:02;;;;;;;30.83;18.67;;;;;;;4.28;100.00;99214.75;10438473;28;20049;-72
2020/12/07 12:47:03;;;;;;;14.25;11.25;;;;;;;4.35;100.00;99210.97;10391332;28;20620;-73
2020/12/07 12:52:04;;;;;;;11.35;7.88;;;;;;;4.37;100.00;99210.91;10404684;28;20042;-73
2020/12/07 12:57:05;;;;;;;10.02;7.07;;;;;;;4.45;100.00;99207.06;10375746;28;20045;-73
2020/12/07 13:02:08;;;;;;;10.20;7.07;;;;;;;4.56;100.00;99219.69;10416569;28;20054;-72
2020/12/07 13:07:09;;;;;;;15.95;13.85;;;;;;;4.51;100.00;99227.72;10381242;28;20681;-74
2020/12/07 13:12:10;;;;;;;10.43;7.93;;;;;;;4.30;100.00;99225.13;10376998;28;20048;-73
2020/12/07 13:17:14;;;;;;;10.40;8.23;;;;;;;4.28;100.00;99217.34;10374503;28;20049;-73
2020/12/07 13:22:26;;;;;;;9.93;7.90;;;;;;;4.40;100.00;99226.44;10392090;28;20052;-73
2020/12/07 13:32:33;;;;;;;11.55;8.20;;;;;;;4.49;100.00;99213.03;10384288;28;20042;-72
2020/12/07 13:37:34;;;;;;;10.77;7.50;;;;;;;4.36;100.00;99217.88;10379836;28;20056;-73
2020/12/07 13:42:35;;;;;;;10.80;7.43;;;;;;;4.36;100.00;99215.28;10388152;28;21460;-72
2020/12/07 13:47:36;;;;;;;10.40;7.65;;;;;;;4.40;100.00;99218.63;10373125;28;20045;-74
2020/12/07 13:52:38;;;;;;;10.10;6.75;;;;;;;4.41;100.00;99209.91;10372902;28;20057;-73
2020/12/07 13:57:40;;;;;;;10.32;7.47;;;;;;;4.44;100.00;99223.63;10374912;28;20041;-73
2020/12/07 14:02:41;;;;;;;10.13;7.05;;;;;;;4.43;100.00;99229.78;10355175;28;20065;-73
2020/12/07 14:07:42;;;;;;;7.60;5.80;;;;;;;4.58;100.00;99236.97;10355147;28;20050;-73
2020/12/07 14:12:44;;;;;;;8.00;6.32;;;;;;;4.62;100.00;99236.81;10372773;28;20042;-74
2020/12/07 14:17:58;;;;;;;7.90;5.47;;;;;;;4.71;100.00;99239.03;10376790;28;20520;-72
2020/12/07 14:44:15;;;;;;;7.65;5.80;;;;;;;4.41;100.00;99249.00;10374556;28;20801;-73
2020/12/07 14:49:16;;;;;;;9.40;6.40;;;;;;;4.24;100.00;99260.13;10384403;28;20389;-73
2020/12/07 14:54:24;;;;;;;10.85;7.72;;;;;;;4.10;100.00;99259.81;10383522;28;20049;-73
2020/12/07 15:15:11;;;;;;;13.13;8.60;;;;;;;3.94;100.00;99289.97;10380116;28;20049;-71
2020/12/07 15:20:12;;;;;;;13.18;8.50;;;;;;;3.86;100.00;99286.81;10372344;28;20073;-71
2020/12/07 15:25:13;;;;;;;12.07;8.40;;;;;;;3.76;100.00;99286.31;10395057;28;20073;-71
2020/12/07 15:30:14;;;;;;;15.20;9.73;;;;;;;3.74;100.00;99293.34;10378440;28;20044;-72
2020/12/07 15:35:15;;;;;;;16.77;10.77;;;;;;;3.71;100.00;99298.66;10388484;28;20046;-72
2020/12/07 15:40:16;;;;;;;18.45;12.65;;;;;;;3.74;100.00;99306.38;10393034;28;20493;-72
2020/12/07 15:45:18;;;;;;;22.63;15.25;;;;;;;3.83;100.00;99313.84;10383478;28;20045;-72
2020/12/07 15:50:19;;;;;;;19.75;13.65;;;;;;;3.84;100.00;99315.53;10436176;28;20045;-72
2020/12/07 15:55:21;;;;;;;18.88;14.25;;;;;;;3.91;100.00;99323.97;10408854;28;20072;-71
2020/12/07 16:00:22;;;;;;;21.58;14.98;;;;;;;3.92;100.00;99339.53;10416153;28;20128;-71
2020/12/07 16:05:23;;;;;;;22.35;14.20;;;;;;;3.68;100.00;99330.03;10427524;28;20061;-72
2020/12/07 16:10:25;;;;;;;24.63;15.13;;;;;;;3.72;100.00;99347.25;10419477;28;20473;-72
2020/12/07 16:15:26;;;;;;;18.73;12.50;;;;;;;3.89;100.00;99360.50;10408148;28;20052;-73
2020/12/07 16:20:28;;;;;;;17.38;11.55;;;;;;;3.86;100.00;99360.59;10394608;28;20041;-73
2020/12/07 16:25:29;;;;;;;8.88;6.72;;;;;;;3.88;100.00;99361.41;10412703;28;20557;-73
2020/12/07 16:30:31;;;;;;;9.02;5.13;;;;;;;3.91;100.00;99345.66;10415564;28;20412;-72
2020/12/07 16:35:35;;;;;;;;;;;;;;;3.91;100.00;99344.81;10377410;28;20038;-71
2020/12/07 16:40:36;;;;;;;6.13;4.47;;;;;;;3.68;100.00;99333.47;10376795;28;19927;-71
2020/12/07 16:45:38;;;;;;;7.20;4.28;;;;;;;3.58;100.00;99337.34;10377481;28;20097;-72
2020/12/07 16:50:39;;;;;;;6.05;4.47;;;;;;;3.43;100.00;99336.09;10363249;28;20135;-71
2020/12/07 16:55:40;;;;;;;5.80;4.25;;;;;;;3.29;100.00;99335.75;10382938;28;20057;-72
2020/12/07 17:00:41;;;;;;;5.68;4.07;;;;;;;3.44;100.00;99339.56;10384084;28;20504;-71
2020/12/07 17:05:43;;;;;;;6.78;4.13;;;;;;;3.56;100.00;99352.16;10384000;28;20044;-71
2020/12/07 17:10:44;;;;;;;7.40;4.50;;;;;;;3.60;100.00;99358.94;10389290;28;20033;-70
2020/12/07 17:15:45;;;;;;;6.78;5.00;;;;;;;3.52;100.00;99363.56;10404977;28;20046;-72
2020/12/07 17:20:47;;;;;;;6.60;4.60;;;;;;;3.07;100.00;99357.38;10406955;28;20045;-71
2020/12/07 17:25:50;;;;;;;9.32;6.28;;;;;;;2.97;100.00;99356.81;10400835;28;20073;-71
2020/12/07 17:30:51;;;;;;;9.50;7.47;;;;;;;2.94;100.00;99375.13;10400550;28;20488;-71
2020/12/07 17:35:52;;;;;;;13.82;9.00;;;;;;;2.86;100.00;99369.31;10384964;28;20049;-71
2020/12/07 17:40:53;;;;;;;15.05;10.25;;;;;;;2.74;100.00;99373.19;10381939;28;20041;-71
2020/12/07 17:45:55;;;;;;;14.30;9.77;;;;;;;2.75;100.00;99372.31;10394027;28;20037;-71
2020/12/07 17:50:56;;;;;;;13.02;9.63;;;;;;;2.77;100.00;99380.88;10395759;28;20073;-71
2020/12/07 17:55:57;;;;;;;15.80;10.57;;;;;;;2.67;100.00;99369.94;10399982;28;20052;-71
2020/12/07 18:00:58;;;;;;;15.98;9.85;;;;;;;2.72;100.00;99374.97;10364404;28;21111;-71
2020/12/07 18:06:00;;;;;;;28.02;18.83;;;;;;;2.79;100.00;99381.69;10377211;28;20413;-71
2020/12/07 18:11:01;;;;;;;24.10;18.88;;;;;;;2.70;100.00;99371.56;10398359;28;20030;-71
2020/12/07 18:16:03;;;;;;;17.48;11.57;;;;;;;2.71;100.00;99380.22;10402076;28;20378;-71
2020/12/07 18:21:04;;;;;;;13.30;8.43;;;;;;;3.11;100.00;99379.78;10395897;28;20133;-71
2020/12/07 18:26:06;;;;;;;12.05;8.45;;;;;;;3.09;100.00;99372.03;10382697;28;20038;-71
2020/12/07 18:31:09;;;;;;;11.73;8.32;;;;;;;3.03;100.00;99372.22;10379082;28;20068;-71
2020/12/07 18:36:10;;;;;;;15.30;9.93;;;;;;;2.84;100.00;99369.41;10355587;28;20052;-71
2020/12/07 18:41:11;;;;;;;19.65;12.68;;;;;;;2.46;100.00;99372.34;10377600;28;20049;-71
2020/12/07 18:46:13;;;;;;;19.95;13.57;;;;;;;2.30;100.00;99379.78;10374071;28;20050;-71
2020/12/07 18:51:14;;;;;;;22.60;13.75;;;;;;;2.16;100.00;99381.94;10378417;28;20400;-71
2020/12/07 18:56:15;;;;;;;26.15;16.23;;;;;;;2.00;100.00;99383.31;10411109;28;20041;-71
2020/12/07 19:01:16;;;;;;;17.80;12.68;;;;;;;1.94;100.00;99394.69;10380361;28;20058;-71
2020/12/07 19:06:17;;;;;;;16.30;12.00;;;;;;;1.92;100.00;99400.84;10394306;28;20042;-71
2020/12/07 19:11:18;;;;;;;13.88;9.18;;;;;;;1.95;100.00;99413.72;10398196;28;20409;-71
2020/12/07 19:16:24;;;;;;;14.35;10.35;;;;;;;2.01;100.00;99409.19;10374708;28;20038;-71
2020/12/07 19:21:25;;;;;;;15.18;10.80;;;;;;;2.05;100.00;99413.44;10377105;28;20046;-71
2020/12/07 19:26:27;;;;;;;12.10;9.88;;;;;;;1.94;100.00;99405.09;10400969;28;20041;-71
2020/12/07 19:31:32;;;;;;;14.18;10.52;;;;;;;2.19;100.00;99429.47;10390388;28;20045;-71
2020/12/07 19:36:34;;;;;;;16.13;11.60;;;;;;;2.43;100.00;99434.81;10415269;28;20370;-71
2020/12/07 19:41:37;;;;;;;14.32;11.02;;;;;;;2.25;100.00;99420.66;10410884;28;20041;-72
2020/12/07 19:46:38;;;;;;;17.92;10.88;;;;;;;2.09;100.00;99422.00;10400935;28;20495;-71
2020/12/07 19:51:39;;;;;;;13.82;11.38;;;;;;;1.96;100.00;99425.81;10381826;28;20045;-71
2020/12/07 19:56:40;;;;;;;14.68;11.50;;;;;;;1.63;100.00;99412.88;10399305;28;20040;-71
2020/12/07 20:01:49;;;;;;;14.07;10.30;;;;;;;1.30;100.00;99425.00;10392226;28;20045;-71
2020/12/07 20:06:50;;;;;;;14.15;10.43;;;;;;;1.46;100.00;99451.41;10391994;28;20057;-71
2020/12/07 20:11:52;;;;;;;15.98;12.50;;;;;;;1.48;100.00;99450.50;10373123;28;20042;-71
2020/12/07 20:16:53;;;;;;;17.38;13.07;;;;;;;1.52;100.00;99459.88;10375225;28;20038;-71
2020/12/07 20:21:54;;;;;;;16.77;13.57;;;;;;;1.59;100.00;99465.75;10375347;28;20038;-71
2020/12/07 20:26:55;;;;;;;15.77;12.27;;;;;;;1.57;100.00;99464.13;10382530;28;20779;-71
2020/12/07 20:31:57;;;;;;;17.77;13.52;;;;;;;1.47;100.00;99458.31;10394326;28;20046;-71
2020/12/07 20:36:58;;;;;;;16.20;13.52;;;;;;;1.27;100.00;99447.56;10382626;28;20397;-71
2020/12/07 20:41:59;;;;;;;18.80;14.35;;;;;;;1.23;100.00;99452.00;10391014;28;20042;-71
2020/12/07 20:47:06;;;;;;;18.05;14.18;;;;;;;1.22;100.00;99457.22;10384183;28;20057;-71
2020/12/07 20:52:10;;;;;;;20.48;15.02;;;;;;;1.04;100.00;99450.75;10382398;28;20133;-71
2020/12/07 20:57:12;;;;;;;15.85;13.48;;;;;;;1.07;100.00;99466.25;10380746;28;20125;-71
2020/12/07 21:02:13;;;;;;;18.25;13.35;;;;;;;1.05;100.00;99462.81;10398166;28;20058;-71
2020/12/07 21:07:14;;;;;;;18.05;13.70;;;;;;;0.81;100.00;99453.88;10388573;28;20088;-71
2020/12/07 21:12:15;;;;;;;20.50;15.38;;;;;;;0.86;100.00;99465.00;10419091;28;20045;-71
2020/12/07 21:17:16;;;;;;;21.77;16.58;;;;;;;0.83;100.00;99462.50;10411622;28;20486;-71
2020/12/07 21:22:17;;;;;;;18.25;14.70;;;;;;;0.71;100.00;99455.84;10388921;28;20046;-71
2020/12/07 21:27:19;;;;;;;17.73;12.90;;;;;;;0.71;100.00;99458.44;10399758;28;20045;-71
2020/12/07 21:32:20;;;;;;;20.65;14.93;;;;;;;0.68;100.00;99449.84;10375109;28;20190;-71
2020/12/07 21:37:22;;;;;;;18.23;13.50;;;;;;;0.36;100.00;99445.41;10378379;28;20059;-71
2020/12/07 21:42:23;;;;;;;19.33;13.50;;;;;;;0.60;100.00;99464.72;10417085;28;20048;-71
2020/12/07 21:47:24;;;;;;;18.17;13.20;;;;;;;0.81;100.00;99466.00;10394628;28;20513;-71
2020/12/07 21:52:25;;;;;;;17.65;13.98;;;;;;;1.17;100.00;99477.25;10367263;28;20065;-71
2020/12/07 21:57:27;;;;;;;16.83;12.75;;;;;;;0.61;100.00;99450.88;10397867;28;20049;-71
2020/12/07 22:02:28;;;;;;;20.95;13.73;;;;;;;0.95;100.00;99461.34;10375238;28;20058;-71
2020/12/07 22:07:29;;;;;;;21.25;13.80;;;;;;;0.85;100.00;99452.91;10384208;28;20060;-71
2020/12/07 22:12:30;;;;;;;18.35;12.70;;;;;;;0.80;100.00;99454.78;10406872;28;20401;-71
2020/12/07 22:17:31;;;;;;;19.77;14.27;;;;;;;0.82;100.00;99459.94;10374819;28;20050;-71
2020/12/07 22:22:33;;;;;;;19.23;14.88;;;;;;;0.56;100.00;99457.91;10373491;28;20041;-71
2020/12/07 22:27:36;;;;;;;35.00;15.63;;;;;;;0.25;100.00;99453.38;10375391;28;20061;-71
2020/12/07 22:32:37;;;;;;;24.00;16.80;;;;;;;0.47;100.00;99461.56;10372015;28;20045;-71
2020/12/07 22:37:39;;;;;;;21.50;15.73;;;;;;;0.60;100.00;99475.09;10371142;28;20378;-71
2020/12/07 22:42:40;;;;;;;25.85;15.95;;;;;;;0.81;100.00;99484.13;10381667;28;20053;-70
2020/12/07 22:47:41;;;;;;;23.42;16.58;;;;;;;0.69;100.00;99488.69;10377859;28;20485;-71
2020/12/07 22:52:42;;;;;;;22.52;15.68;;;;;;;0.60;100.00;99494.09;10404554;28;20042;-71
2020/12/07 22:57:43;;;;;;;23.38;16.50;;;;;;;0.46;100.00;99492.69;10374409;28;20049;-71
2020/12/07 23:02:44;;;;;;;25.20;15.88;;;;;;;0.53;100.00;99504.63;10372104;28;20049;-70
2020/12/07 23:07:46;;;;;;;29.73;18.02;;;;;;;0.55;100.00;99503.72;10388720;28;20056;-71
2020/12/07 23:12:47;;;;;;;26.33;17.67;;;;;;;0.49;100.00;99513.38;10409301;28;20052;-71
2020/12/07 23:17:49;;;;;;;29.92;19.85;;;;;;;0.34;100.00;99506.72;10412876;28;20042;-71
2020/12/07 23:22:50;;;;;;;26.92;19.83;;;;;;;0.20;100.00;99508.75;10412873;28;20045;-71
2020/12/07 23:27:51;;;;;;;27.90;17.75;;;;;;;0.18;100.00;99513.97;10398903;28;20049;-71
2020/12/07 23:32:53;;;;;;;27.08;18.50;;;;;;;0.20;100.00;99514.78;10397369;28;20045;-71
2020/12/07 23:37:54;;;;;;;29.60;18.67;;;;;;;0.17;100.00;99517.44;10396673;28;20038;-71
2020/12/07 23:42:55;;;;;;;25.55;18.33;;;;;;;0.14;100.00;99520.09;10369514;28;20125;-71
2020/12/07 23:47:56;;;;;;;24.75;16.05;;;;;;;0.04;100.00;99522.88;10403978;28;20770;-71
2020/12/07 23:52:57;;;;;;;26.33;17.50;;;;;;;0.16;100.00;99533.88;10411209;28;20057;-71
2020/12/07 23:57:58;;;;;;;28.23;18.45;;;;;;;0.32;100.00;99537.88;10409819;28;20041;-71
